Time,TemperatureF,DewpointF,PressureIn,WindDirection,WindDirectionDegrees,WindSpeedMPH,WindSpeedGustMPH,Humidity,HourlyPrecipIn,Conditions,Clouds,dailyrainin,SoftwareType,DateUTC
2013-04-12 00:00:00,33.8,29.8,29.81,NE,51,0.0,-999.0,85,0.00,,,0.00,WeatherSnoop3.0,2013-04-12 05:00:00,
2013-04-12 00:05:00,33.7,29.7,29.81,NE,51,0.0,-999.0,85,0.00,,,0.00,WeatherSnoop3.0,2013-04-12 05:05:00,
2013-04-12 00:10:00,33.5,29.5,29.82,NE,41,0.0,-999.0,85,0.00,,,0.00,WeatherSnoop3.0,2013-04-12 05:10:00,
2013-04-12 00:15:00,33.4,29.7,29.82,NE,41,0.0,-999.0,86,0.00,,,0.00,WeatherSnoop3.0,2013-04-12 05:15:00,
2013-04-12 00:20:00,33.0,29.3,29.82,NE,41,0.0,-999.0,86,0.00,,,0.00,WeatherSnoop3.0,2013-04-12 05:20:00,
2013-04-12 00:25:00,32.6,29.2,29.82,NNE,12,0.0,-999.0,87,0.00,,,0.00,WeatherSnoop3.0,2013-04-12 05:25:00,
2013-04-12 00:30:00,32.2,29.1,29.82,North,353,0.0,-999.0,88,0.00,,,0.00,WeatherSnoop3.0,2013-04-12 05:30:00,
2013-04-12 00:35:00,32.3,29.2,29.82,NNE,26,0.0,-999.0,88,0.00,,,0.00,WeatherSnoop3.0,2013-04-12 05:35:00,
2013-04-12 00:40:00,32.5,29.1,29.82,North,9,0.0,-999.0,87,0.00,,,0.00,WeatherSnoop3.0,2013-04-12 05:40:00,
2013-04-12 00:45:00,32.7,29.3,29.82,North,358,0.0,-999.0,87,0.00,,,0.00,WeatherSnoop3.0,2013-04-12 05:45:00,
2013-04-12 00:50:00,32.6,29.2,29.82,North,358,0.0,-999.0,87,0.00,,,0.00,WeatherSnoop3.0,2013-04-12 05:50:00,
2013-04-12 00:55:00,32.3,28.9,29.83,West,263,0.0,-999.0,87,0.00,,,0.00,WeatherSnoop3.0,2013-04-12 05:55:00,
2013-04-12 01:00:00,32.1,28.7,29.83,West,269,0.0,-999.0,87,0.00,,,0.00,WeatherSnoop3.0,2013-04-12 06:00:00,
2013-04-12 01:05:00,31.7,28.6,29.82,West,269,0.0,-999.0,88,0.00,,,0.00,WeatherSnoop3.0,2013-04-12 06:05:00,
2013-04-12 01:10:00,31.2,28.1,29.82,WNW,295,1.0,-999.0,88,0.00,,,0.00,WeatherSnoop3.0,2013-04-12 06:10:00,
2013-04-12 01:15:00,30.7,27.8,29.82,WNW,288,0.0,-999.0,89,0.00,,,0.00,WeatherSnoop3.0,2013-04-12 06:15:00,
2013-04-12 01:20:00,30.6,28.0,29.82,North,8,0.0,-999.0,90,0.00,,,0.00,WeatherSnoop3.0,2013-04-12 06:20:00,
2013-04-12 01:25:00,31.1,28.5,29.83,North,358,0.0,-999.0,90,0.00,,,0.00,WeatherSnoop3.0,2013-04-12 06:25:00,
2013-04-12 01:30:00,31.2,28.3,29.83,NW,323,0.0,-999.0,89,0.00,,,0.00,WeatherSnoop3.0,2013-04-12 06:30:00,
2013-04-12 01:35:00,31.0,28.1,29.82,NW,323,0.0,-999.0,89,0.00,,,0.00,WeatherSnoop3.0,2013-04-12 06:35:00,
2013-04-12 01:40:00,30.7,28.1,29.82,NW,323,0.0,-999.0,90,0.00,,,0.00,WeatherSnoop3.0,2013-04-12 06:40:00,
2013-04-12 01:45:00,30.6,28.0,29.82,NW,323,0.0,-999.0,90,0.00,,,0.00,WeatherSnoop3.0,2013-04-12 06:45:00,
2013-04-12 01:50:00,30.4,27.8,29.82,NW,323,0.0,-999.0,90,0.00,,,0.00,WeatherSnoop3.0,2013-04-12 06:50:00,
2013-04-12 01:55:00,30.0,27.4,29.82,NW,323,0.0,-999.0,90,0.00,,,0.00,WeatherSnoop3.0,2013-04-12 06:55:00,
2013-04-12 02:00:00,29.7,27.4,29.83,NW,323,0.0,-999.0,91,0.00,,,0.00,WeatherSnoop3.0,2013-04-12 07:00:00,
2013-04-12 02:05:00,29.4,27.4,29.83,NW,323,0.0,-999.0,92,0.00,,,0.00,WeatherSnoop3.0,2013-04-12 07:05:00,
2013-04-12 02:10:00,29.0,27.0,29.83,NW,323,0.0,-999.0,92,0.00,,,0.00,WeatherSnoop3.0,2013-04-12 07:10:00,
2013-04-12 02:15:00,28.9,27.1,29.84,NW,323,0.0,-999.0,93,0.00,,,0.00,WeatherSnoop3.0,2013-04-12 07:15:00,
2013-04-12 02:20:00,28.9,27.1,29.84,NW,323,0.0,-999.0,93,0.00,,,0.00,WeatherSnoop3.0,2013-04-12 07:20:00,
2013-04-12 02:25:00,28.8,27.0,29.84,NW,323,0.0,-999.0,93,0.00,,,0.00,WeatherSnoop3.0,2013-04-12 07:25:00,
2013-04-12 02:30:00,29.3,27.8,29.84,NW,323,0.0,-999.0,94,0.00,,,0.00,WeatherSnoop3.0,2013-04-12 07:30:00,
2013-04-12 02:35:00,29.6,28.1,29.85,NW,323,0.0,-999.0,94,0.00,,,0.00,WeatherSnoop3.0,2013-04-12 07:35:00,
2013-04-12 02:40:00,29.9,28.1,29.85,NW,323,0.0,-999.0,93,0.00,,,0.00,WeatherSnoop3.0,2013-04-12 07:40:00,
2013-04-12 02:45:00,30.1,28.3,29.85,NW,323,0.0,-999.0,93,0.00,,,0.00,WeatherSnoop3.0,2013-04-12 07:45:00,
2013-04-12 02:50:00,30.2,28.2,29.85,NW,304,0.0,-999.0,92,0.00,,,0.00,WeatherSnoop3.0,2013-04-12 07:50:00,
2013-04-12 02:55:00,30.3,28.0,29.85,WNW,285,0.0,-999.0,91,0.00,,,0.00,WeatherSnoop3.0,2013-04-12 07:55:00,
2013-04-12 03:00:00,30.5,27.9,29.85,WNW,284,0.0,-999.0,90,0.00,,,0.00,WeatherSnoop3.0,2013-04-12 08:00:00,
2013-04-12 03:05:00,30.6,28.0,29.85,WNW,288,0.0,-999.0,90,0.00,,,0.00,WeatherSnoop3.0,2013-04-12 08:05:00,
2013-04-12 03:10:00,30.9,28.3,29.85,WNW,288,1.0,-999.0,90,0.00,,,0.00,WeatherSnoop3.0,2013-04-12 08:10:00,
2013-04-12 03:15:00,31.2,28.3,29.84,WNW,285,0.0,-999.0,89,0.00,,,0.00,WeatherSnoop3.0,2013-04-12 08:15:00,
2013-04-12 03:20:00,31.5,28.6,29.85,WNW,285,0.0,-999.0,89,0.00,,,0.00,WeatherSnoop3.0,2013-04-12 08:20:00,
2013-04-12 03:25:00,31.6,28.5,29.85,West,281,1.0,-999.0,88,0.00,,,0.00,WeatherSnoop3.0,2013-04-12 08:25:00,
2013-04-12 03:30:00,31.5,28.4,29.85,WNW,290,3.0,-999.0,88,0.00,,,0.00,WeatherSnoop3.0,2013-04-12 08:30:00,
2013-04-12 03:35:00,31.6,28.5,29.85,WNW,288,2.0,-999.0,88,0.00,,,0.00,WeatherSnoop3.0,2013-04-12 08:35:00,
2013-04-12 03:40:00,31.6,28.5,29.85,West,278,3.0,-999.0,88,0.00,,,0.00,WeatherSnoop3.0,2013-04-12 08:40:00,
2013-04-12 03:45:00,31.4,28.3,29.85,NW,315,1.0,-999.0,88,0.00,,,0.00,WeatherSnoop3.0,2013-04-12 08:45:00,
2013-04-12 03:50:00,31.3,28.2,29.85,West,267,1.0,-999.0,88,0.00,,,0.00,WeatherSnoop3.0,2013-04-12 08:50:00,
2013-04-12 03:55:00,31.1,28.0,29.85,West,267,2.0,-999.0,88,0.00,,,0.00,WeatherSnoop3.0,2013-04-12 08:55:00,
2013-04-12 04:00:00,31.0,27.9,29.85,West,278,1.0,-999.0,88,0.00,,,0.00,WeatherSnoop3.0,2013-04-12 09:00:00,
2013-04-12 04:05:00,30.9,27.8,29.86,North,4,0.0,-999.0,88,0.00,,,0.00,WeatherSnoop3.0,2013-04-12 09:05:00,
2013-04-12 04:10:00,30.8,27.7,29.86,West,271,0.0,-999.0,88,0.00,,,0.00,WeatherSnoop3.0,2013-04-12 09:10:00,
2013-04-12 04:15:00,30.8,27.7,29.86,West,281,1.0,-999.0,88,0.00,,,0.00,WeatherSnoop3.0,2013-04-12 09:15:00,
2013-04-12 04:20:00,30.6,27.5,29.86,WNW,283,1.0,-999.0,88,0.00,,,0.00,WeatherSnoop3.0,2013-04-12 09:20:00,
2013-04-12 04:25:00,30.5,27.4,29.86,West,281,1.0,-999.0,88,0.00,,,0.00,WeatherSnoop3.0,2013-04-12 09:25:00,
2013-04-12 04:30:00,30.3,27.5,29.86,WNW,285,1.0,-999.0,89,0.00,,,0.00,WeatherSnoop3.0,2013-04-12 09:30:00,
2013-04-12 04:35:00,30.2,27.1,29.86,West,277,1.0,-999.0,88,0.00,,,0.00,WeatherSnoop3.0,2013-04-12 09:35:00,
2013-04-12 04:40:00,30.2,27.4,29.86,West,281,0.0,-999.0,89,0.00,,,0.00,WeatherSnoop3.0,2013-04-12 09:40:00,
2013-04-12 04:45:00,30.1,27.3,29.86,West,273,0.0,-999.0,89,0.00,,,0.00,WeatherSnoop3.0,2013-04-12 09:45:00,
2013-04-12 04:50:00,29.8,27.0,29.86,West,273,0.0,-999.0,89,0.00,,,0.00,WeatherSnoop3.0,2013-04-12 09:50:00,
2013-04-12 04:55:00,29.8,27.2,29.86,West,273,0.0,-999.0,90,0.00,,,0.00,WeatherSnoop3.0,2013-04-12 09:55:00,
2013-04-12 05:00:00,29.7,27.1,29.86,West,273,0.0,-999.0,90,0.00,,,0.00,WeatherSnoop3.0,2013-04-12 10:00:00,
2013-04-12 05:05:00,29.4,26.8,29.87,West,273,0.0,-999.0,90,0.00,,,0.00,WeatherSnoop3.0,2013-04-12 10:05:00,
2013-04-12 05:10:00,29.2,26.9,29.86,West,273,0.0,-999.0,91,0.00,,,0.00,WeatherSnoop3.0,2013-04-12 10:10:00,
2013-04-12 05:15:00,29.2,26.9,29.87,West,273,0.0,-999.0,91,0.00,,,0.00,WeatherSnoop3.0,2013-04-12 10:15:00,
2013-04-12 05:20:00,29.2,26.9,29.87,West,271,0.0,-999.0,91,0.00,,,0.00,WeatherSnoop3.0,2013-04-12 10:20:00,
2013-04-12 05:25:00,29.4,27.1,29.87,West,277,1.0,-999.0,91,0.00,,,0.00,WeatherSnoop3.0,2013-04-12 10:25:00,
2013-04-12 05:30:00,29.4,26.8,29.87,West,276,1.0,-999.0,90,0.00,,,0.00,WeatherSnoop3.0,2013-04-12 10:30:00,
2013-04-12 05:35:00,29.3,26.7,29.88,West,276,1.0,-999.0,90,0.00,,,0.00,WeatherSnoop3.0,2013-04-12 10:35:00,
2013-04-12 05:40:00,29.2,26.9,29.88,WNW,284,1.0,-999.0,91,0.00,,,0.00,WeatherSnoop3.0,2013-04-12 10:40:00,
2013-04-12 05:46:00,29.1,26.8,29.88,West,280,1.0,-999.0,91,0.00,,,0.00,WeatherSnoop3.0,2013-04-12 10:46:00,
2013-04-12 05:51:00,29.3,27.0,29.88,West,273,0.0,-999.0,91,0.00,,,0.00,WeatherSnoop3.0,2013-04-12 10:51:00,
2013-04-12 05:56:00,29.6,27.3,29.88,WNW,287,1.0,-999.0,91,0.00,,,0.00,WeatherSnoop3.0,2013-04-12 10:56:00,
2013-04-12 06:03:00,29.6,27.3,29.88,West,280,0.0,-999.0,91,0.00,,,0.00,WeatherSnoop3.0,2013-04-12 11:03:00,
2013-04-12 06:08:00,29.8,27.5,29.89,West,281,0.0,-999.0,91,0.00,,,0.00,WeatherSnoop3.0,2013-04-12 11:08:00,
2013-04-12 06:13:00,29.8,27.2,29.89,West,278,0.0,-999.0,90,0.00,,,0.00,WeatherSnoop3.0,2013-04-12 11:13:00,
2013-04-12 06:18:00,29.8,27.2,29.89,West,278,0.0,-999.0,90,0.00,,,0.00,WeatherSnoop3.0,2013-04-12 11:18:00,
2013-04-12 06:23:00,29.8,27.2,29.89,West,274,0.0,-999.0,90,0.00,,,0.00,WeatherSnoop3.0,2013-04-12 11:23:00,
2013-04-12 06:28:00,29.7,27.1,29.89,West,276,0.0,-999.0,90,0.00,,,0.00,WeatherSnoop3.0,2013-04-12 11:28:00,
2013-04-12 06:33:00,29.6,27.0,29.89,West,276,0.0,-999.0,90,0.00,,,0.00,WeatherSnoop3.0,2013-04-12 11:33:00,
2013-04-12 06:38:00,29.6,27.0,29.89,West,276,1.0,-999.0,90,0.00,,,0.00,WeatherSnoop3.0,2013-04-12 11:38:00,
2013-04-12 06:43:00,29.7,27.1,29.90,West,278,1.0,-999.0,90,0.00,,,0.00,WeatherSnoop3.0,2013-04-12 11:43:00,
2013-04-12 06:48:00,29.7,26.9,29.90,WNW,283,0.0,-999.0,89,0.00,,,0.00,WeatherSnoop3.0,2013-04-12 11:48:00,
2013-04-12 06:53:00,29.7,26.9,29.90,West,280,0.0,-999.0,89,0.00,,,0.00,WeatherSnoop3.0,2013-04-12 11:53:00,
2013-04-12 06:58:00,29.8,27.0,29.90,West,278,0.0,-999.0,89,0.00,,,0.00,WeatherSnoop3.0,2013-04-12 11:58:00,
2013-04-12 07:03:00,30.0,26.9,29.91,West,271,0.0,-999.0,88,0.00,,,0.00,WeatherSnoop3.0,2013-04-12 12:03:00,
2013-04-12 07:08:00,30.1,27.0,29.91,West,260,1.0,-999.0,88,0.00,,,0.00,WeatherSnoop3.0,2013-04-12 12:08:00,
2013-04-12 07:13:00,30.2,26.8,29.91,West,277,0.0,-999.0,87,0.00,,,0.00,WeatherSnoop3.0,2013-04-12 12:13:00,
2013-04-12 07:18:00,30.4,27.0,29.91,WNW,285,2.0,-999.0,87,0.00,,,0.00,WeatherSnoop3.0,2013-04-12 12:18:00,
2013-04-12 07:23:00,30.5,27.1,29.92,West,266,0.0,-999.0,87,0.00,,,0.00,WeatherSnoop3.0,2013-04-12 12:23:00,
2013-04-12 07:28:00,30.7,27.3,29.92,WNW,284,0.0,-999.0,87,0.00,,,0.00,WeatherSnoop3.0,2013-04-12 12:28:00,
2013-04-12 07:33:00,31.1,27.7,29.92,WNW,292,0.0,-999.0,87,0.00,,,0.00,WeatherSnoop3.0,2013-04-12 12:33:00,
2013-04-12 07:38:00,31.8,28.1,29.92,West,276,0.0,-999.0,86,0.00,,,0.00,WeatherSnoop3.0,2013-04-12 12:38:00,
2013-04-12 07:43:00,31.9,28.2,29.92,West,274,1.0,-999.0,86,0.00,,,0.00,WeatherSnoop3.0,2013-04-12 12:43:00,
2013-04-12 07:48:00,31.8,28.1,29.92,West,280,1.0,-999.0,86,0.00,,,0.00,WeatherSnoop3.0,2013-04-12 12:48:00,
2013-04-12 07:53:00,31.8,28.4,29.93,West,266,1.0,-999.0,87,0.00,,,0.00,WeatherSnoop3.0,2013-04-12 12:53:00,
2013-04-12 07:58:00,32.1,28.7,29.93,West,277,1.0,-999.0,87,0.00,,,0.00,WeatherSnoop3.0,2013-04-12 12:58:00,
2013-04-12 08:03:00,32.4,28.7,29.93,West,275,1.0,-999.0,86,0.00,,,0.00,WeatherSnoop3.0,2013-04-12 13:03:00,
2013-04-12 08:08:00,32.7,29.0,29.93,West,277,1.0,-999.0,86,0.00,,,0.00,WeatherSnoop3.0,2013-04-12 13:08:00,
2013-04-12 08:13:00,33.0,29.3,29.93,NW,304,1.0,-999.0,86,0.00,,,0.00,WeatherSnoop3.0,2013-04-12 13:13:00,
2013-04-12 08:18:00,33.3,29.3,29.93,WSW,251,2.0,-999.0,85,0.00,,,0.00,WeatherSnoop3.0,2013-04-12 13:18:00,
2013-04-12 08:23:00,33.7,29.7,29.93,West,273,0.0,-999.0,85,0.00,,,0.00,WeatherSnoop3.0,2013-04-12 13:23:00,
2013-04-12 08:28:00,34.1,29.8,29.93,West,276,0.0,-999.0,84,0.00,,,0.00,WeatherSnoop3.0,2013-04-12 13:28:00,
2013-04-12 08:33:00,34.4,30.1,29.93,WNW,293,1.0,-999.0,84,0.00,,,0.00,WeatherSnoop3.0,2013-04-12 13:33:00,
2013-04-12 08:38:00,34.7,29.8,29.93,West,273,1.0,-999.0,82,0.00,,,0.00,WeatherSnoop3.0,2013-04-12 13:38:00,
2013-04-12 08:43:00,35.0,29.8,29.93,NNW,343,2.0,-999.0,81,0.00,,,0.00,WeatherSnoop3.0,2013-04-12 13:43:00,
2013-04-12 08:48:00,35.3,29.8,29.93,WNW,292,2.0,-999.0,80,0.00,,,0.00,WeatherSnoop3.0,2013-04-12 13:48:00,
2013-04-12 08:53:00,35.6,30.1,29.93,WNW,288,0.0,-999.0,80,0.00,,,0.00,WeatherSnoop3.0,2013-04-12 13:53:00,
2013-04-12 08:58:00,36.1,30.2,29.94,West,266,1.0,-999.0,79,0.00,,,0.00,WeatherSnoop3.0,2013-04-12 13:58:00,
2013-04-12 09:03:00,36.5,30.0,29.94,WNW,293,2.0,-999.0,77,0.00,,,0.00,WeatherSnoop3.0,2013-04-12 14:03:00,
2013-04-12 09:08:00,36.9,30.1,29.94,NW,307,2.0,-999.0,76,0.00,,,0.00,WeatherSnoop3.0,2013-04-12 14:08:00,
2013-04-12 09:13:00,37.2,30.3,29.95,West,273,1.0,-999.0,76,0.00,,,0.00,WeatherSnoop3.0,2013-04-12 14:13:00,
2013-04-12 09:18:00,37.6,31.1,29.95,WNW,283,2.0,-999.0,77,0.00,,,0.00,WeatherSnoop3.0,2013-04-12 14:18:00,
2013-04-12 09:23:00,38.1,30.9,29.95,NW,323,1.0,-999.0,75,0.00,,,0.00,WeatherSnoop3.0,2013-04-12 14:23:00,
2013-04-12 09:28:00,38.5,31.3,29.95,NNE,23,1.0,-999.0,75,0.00,,,0.00,WeatherSnoop3.0,2013-04-12 14:28:00,
2013-04-12 09:33:00,38.7,31.1,29.95,North,1,1.0,-999.0,74,0.00,,,0.00,WeatherSnoop3.0,2013-04-12 14:33:00,
2013-04-12 09:38:00,38.9,31.7,29.95,West,270,1.0,-999.0,75,0.00,,,0.00,WeatherSnoop3.0,2013-04-12 14:38:00,
2013-04-12 09:43:00,39.3,31.7,29.95,North,1,1.0,-999.0,74,0.00,,,0.00,WeatherSnoop3.0,2013-04-12 14:43:00,
2013-04-12 09:48:00,39.6,31.3,29.95,NNE,26,3.0,-999.0,72,0.00,,,0.00,WeatherSnoop3.0,2013-04-12 14:48:00,
2013-04-12 09:53:00,39.9,30.6,29.95,NNW,347,2.0,-999.0,69,0.00,,,0.00,WeatherSnoop3.0,2013-04-12 14:53:00,
2013-04-12 09:58:00,40.1,31.5,29.95,NNE,18,2.0,-999.0,71,0.00,,,0.00,WeatherSnoop3.0,2013-04-12 14:58:00,
2013-04-12 10:03:00,40.7,31.7,29.96,NNE,20,6.0,-999.0,70,0.00,,,0.00,WeatherSnoop3.0,2013-04-12 15:03:00,
2013-04-12 10:08:00,41.5,33.2,29.96,NNE,33,3.0,-999.0,72,0.00,,,0.00,WeatherSnoop3.0,2013-04-12 15:08:00,
2013-04-12 10:13:00,41.7,32.3,29.96,NNW,342,2.0,-999.0,69,0.00,,,0.00,WeatherSnoop3.0,2013-04-12 15:13:00,
2013-04-12 10:18:00,41.7,31.9,29.96,NE,36,1.0,-999.0,68,0.00,,,0.00,WeatherSnoop3.0,2013-04-12 15:18:00,
2013-04-12 10:23:00,42.0,31.9,29.96,NE,34,4.0,-999.0,67,0.00,,,0.00,WeatherSnoop3.0,2013-04-12 15:23:00,
2013-04-12 10:28:00,42.1,33.4,29.96,WNW,287,2.0,-999.0,71,0.00,,,0.00,WeatherSnoop3.0,2013-04-12 15:28:00,
2013-04-12 10:33:00,42.9,33.1,29.97,WSW,253,4.0,-999.0,68,0.00,,,0.00,WeatherSnoop3.0,2013-04-12 15:33:00,
2013-04-12 10:38:00,43.4,32.8,29.97,NNW,342,2.0,-999.0,66,0.00,,,0.00,WeatherSnoop3.0,2013-04-12 15:38:00,
2013-04-12 10:43:00,43.8,32.4,29.97,NNE,20,4.0,-999.0,64,0.00,,,0.00,WeatherSnoop3.0,2013-04-12 15:43:00,
2013-04-12 10:48:00,43.9,32.9,29.97,NNE,27,4.0,-999.0,65,0.00,,,0.00,WeatherSnoop3.0,2013-04-12 15:48:00,
2013-04-12 10:53:00,43.9,32.1,29.97,NE,43,2.0,-999.0,63,0.00,,,0.00,WeatherSnoop3.0,2013-04-12 15:53:00,
2013-04-12 10:58:00,43.7,32.7,29.97,West,277,2.0,-999.0,65,0.00,,,0.00,WeatherSnoop3.0,2013-04-12 15:58:00,
2013-04-12 11:03:00,44.4,33.8,29.97,NNE,18,2.0,-999.0,66,0.00,,,0.00,WeatherSnoop3.0,2013-04-12 16:03:00,
2013-04-12 11:08:00,44.7,32.5,29.97,East,84,2.0,-999.0,62,0.00,,,0.00,WeatherSnoop3.0,2013-04-12 16:08:00,
2013-04-12 11:13:00,44.8,33.0,29.97,West,270,1.0,-999.0,63,0.00,,,0.00,WeatherSnoop3.0,2013-04-12 16:13:00,
2013-04-12 11:18:00,45.5,33.6,29.97,North,354,2.0,-999.0,63,0.00,,,0.00,WeatherSnoop3.0,2013-04-12 16:18:00,
2013-04-12 11:23:00,45.1,31.6,29.97,NNW,343,1.0,-999.0,59,0.00,,,0.00,WeatherSnoop3.0,2013-04-12 16:23:00,
2013-04-12 11:28:00,45.6,32.9,29.97,NNE,23,9.0,-999.0,61,0.00,,,0.00,WeatherSnoop3.0,2013-04-12 16:28:00,
2013-04-12 11:33:00,45.2,33.8,29.97,WNW,293,4.0,-999.0,64,0.00,,,0.00,WeatherSnoop3.0,2013-04-12 16:33:00,
2013-04-12 11:38:00,45.8,33.5,29.97,NE,56,0.0,-999.0,62,0.00,,,0.00,WeatherSnoop3.0,2013-04-12 16:38:00,
2013-04-12 11:43:00,47.0,34.7,29.97,North,11,2.0,-999.0,62,0.00,,,0.00,WeatherSnoop3.0,2013-04-12 16:43:00,
2013-04-12 11:48:00,47.2,34.0,29.97,West,281,1.0,-999.0,60,0.00,,,0.00,WeatherSnoop3.0,2013-04-12 16:48:00,
2013-04-12 11:53:00,47.0,34.3,29.97,West,280,1.0,-999.0,61,0.00,,,0.00,WeatherSnoop3.0,2013-04-12 16:53:00,
2013-04-12 11:58:00,46.9,33.3,29.97,NE,40,2.0,-999.0,59,0.00,,,0.00,WeatherSnoop3.0,2013-04-12 16:58:00,
2013-04-12 12:03:00,46.9,33.3,29.97,West,274,2.0,-999.0,59,0.00,,,0.00,WeatherSnoop3.0,2013-04-12 17:03:00,
2013-04-12 12:08:00,47.6,33.6,29.96,NNE,26,4.0,-999.0,58,0.00,,,0.00,WeatherSnoop3.0,2013-04-12 17:08:00,
2013-04-12 12:13:00,47.0,33.4,29.96,ENE,74,0.0,-999.0,59,0.00,,,0.00,WeatherSnoop3.0,2013-04-12 17:13:00,
2013-04-12 12:18:00,47.5,33.9,29.96,NNE,22,2.0,-999.0,59,0.00,,,0.00,WeatherSnoop3.0,2013-04-12 17:18:00,
2013-04-12 12:24:00,48.2,35.4,29.96,North,360,1.0,-999.0,61,0.00,,,0.00,WeatherSnoop3.0,2013-04-12 17:24:00,
2013-04-12 12:29:00,48.6,35.4,29.96,NE,37,4.0,-999.0,60,0.00,,,0.00,WeatherSnoop3.0,2013-04-12 17:29:00,
2013-04-12 12:34:00,48.1,34.5,29.96,NE,48,5.0,-999.0,59,0.00,,,0.00,WeatherSnoop3.0,2013-04-12 17:34:00,
2013-04-12 12:39:00,48.2,34.1,29.96,ENE,65,2.0,-999.0,58,0.00,,,0.00,WeatherSnoop3.0,2013-04-12 17:39:00,
2013-04-12 12:44:00,48.3,33.8,29.96,ENE,59,1.0,-999.0,57,0.00,,,0.00,WeatherSnoop3.0,2013-04-12 17:44:00,
2013-04-12 12:50:00,47.9,35.1,29.96,South,170,0.0,-999.0,61,0.00,,,0.00,WeatherSnoop3.0,2013-04-12 17:50:00,
2013-04-12 12:55:00,49.1,36.2,29.97,West,259,1.0,-999.0,61,0.00,,,0.00,WeatherSnoop3.0,2013-04-12 17:55:00,
2013-04-12 13:03:00,49.1,34.5,29.97,NE,50,0.0,-999.0,57,0.00,,,0.00,WeatherSnoop3.0,2013-04-12 18:03:00,
2013-04-12 13:08:00,49.4,36.5,29.97,NNW,329,2.0,-999.0,61,0.00,,,0.00,WeatherSnoop3.0,2013-04-12 18:08:00,
2013-04-12 13:14:00,49.6,34.1,29.97,NE,41,4.0,-999.0,55,0.00,,,0.00,WeatherSnoop3.0,2013-04-12 18:14:00,
2013-04-12 13:19:00,49.6,34.6,29.97,NNE,15,2.0,-999.0,56,0.00,,,0.00,WeatherSnoop3.0,2013-04-12 18:19:00,
2013-04-12 13:25:00,49.8,35.2,29.97,NW,316,0.0,-999.0,57,0.00,,,0.00,WeatherSnoop3.0,2013-04-12 18:25:00,
2013-04-12 14:26:00,52.9,39.0,29.95,West,271,3.0,-999.0,59,0.00,,,0.00,WeatherSnoop3.0,2013-04-12 19:26:00,
2013-04-12 14:27:00,53.2,40.5,29.95,WNW,295,0.0,-999.0,62,0.00,,,0.00,WeatherSnoop3.0,2013-04-12 19:27:00,
2013-04-12 14:30:00,53.7,37.5,29.96,WSW,243,0.0,-999.0,54,0.00,,,0.00,WeatherSnoop3.0,2013-04-12 19:30:00,
2013-04-12 14:35:00,53.7,40.2,29.95,West,270,5.0,-999.0,60,0.00,,,0.00,WeatherSnoop3.0,2013-04-12 19:35:00,
2013-04-12 14:39:00,54.1,37.8,29.95,WNW,285,3.0,-999.0,54,0.00,,,0.00,WeatherSnoop3.0,2013-04-12 19:39:00,
2013-04-12 14:44:00,54.0,37.7,29.95,West,262,1.0,-999.0,54,0.00,,,0.00,WeatherSnoop3.0,2013-04-12 19:44:00,
2013-04-12 14:49:00,54.0,36.3,29.95,West,260,2.0,-999.0,51,0.00,,,0.00,WeatherSnoop3.0,2013-04-12 19:49:00,
2013-04-12 14:54:00,54.5,36.7,29.95,West,269,0.0,-999.0,51,0.00,,,0.00,WeatherSnoop3.0,2013-04-12 19:54:00,
2013-04-12 14:59:00,54.1,37.8,29.95,West,271,3.0,-999.0,54,0.00,,,0.00,WeatherSnoop3.0,2013-04-12 19:59:00,
2013-04-12 15:04:00,54.8,37.0,29.95,West,259,3.0,-999.0,51,0.00,,,0.00,WeatherSnoop3.0,2013-04-12 20:04:00,
2013-04-12 15:09:00,54.4,37.1,29.94,West,266,3.0,-999.0,52,0.00,,,0.00,WeatherSnoop3.0,2013-04-12 20:09:00,
2013-04-12 15:14:00,54.9,39.5,29.94,West,270,5.0,-999.0,56,0.00,,,0.00,WeatherSnoop3.0,2013-04-12 20:14:00,
2013-04-12 15:19:00,55.0,38.2,29.94,SW,219,2.0,-999.0,53,0.00,,,0.00,WeatherSnoop3.0,2013-04-12 20:19:00,
2013-04-12 15:24:00,55.1,36.3,29.94,WSW,255,2.0,-999.0,49,0.00,,,0.00,WeatherSnoop3.0,2013-04-12 20:24:00,
2013-04-12 15:29:00,54.9,38.6,29.94,WSW,248,4.0,-999.0,54,0.00,,,0.00,WeatherSnoop3.0,2013-04-12 20:29:00,
2013-04-12 15:34:00,54.7,36.4,29.94,West,270,1.0,-999.0,50,0.00,,,0.00,WeatherSnoop3.0,2013-04-12 20:34:00,
2013-04-12 15:39:00,55.0,36.2,29.94,SSW,200,0.0,-999.0,49,0.00,,,0.00,WeatherSnoop3.0,2013-04-12 20:39:00,
2013-04-12 15:44:00,55.7,37.4,29.93,WSW,243,1.0,-999.0,50,0.00,,,0.00,WeatherSnoop3.0,2013-04-12 20:44:00,
2013-04-12 15:49:00,55.1,35.8,29.93,East,100,0.0,-999.0,48,0.00,,,0.00,WeatherSnoop3.0,2013-04-12 20:49:00,
2013-04-12 15:54:00,54.9,36.6,29.92,West,280,1.0,-999.0,50,0.00,,,0.00,WeatherSnoop3.0,2013-04-12 20:54:00,
2013-04-12 15:59:00,55.7,36.8,29.92,SE,135,0.0,-999.0,49,0.00,,,0.00,WeatherSnoop3.0,2013-04-12 20:59:00,
2013-04-12 16:04:00,56.5,39.1,29.92,West,270,1.0,-999.0,52,0.00,,,0.00,WeatherSnoop3.0,2013-04-12 21:04:00,
2013-04-12 16:09:00,55.8,37.9,29.92,NE,53,1.0,-999.0,51,0.00,,,0.00,WeatherSnoop3.0,2013-04-12 21:09:00,
2013-04-12 16:14:00,55.5,36.7,29.92,SW,222,0.0,-999.0,49,0.00,,,0.00,WeatherSnoop3.0,2013-04-12 21:14:00,
2013-04-12 16:19:00,55.9,39.0,29.91,West,259,2.0,-999.0,53,0.00,,,0.00,WeatherSnoop3.0,2013-04-12 21:19:00,
2013-04-12 16:24:00,56.2,37.8,29.91,SE,133,2.0,-999.0,50,0.00,,,0.00,WeatherSnoop3.0,2013-04-12 21:24:00,
2013-04-12 16:29:00,56.3,36.3,29.90,SSW,195,0.0,-999.0,47,0.00,,,0.00,WeatherSnoop3.0,2013-04-12 21:29:00,
2013-04-12 16:34:00,56.8,38.9,29.90,West,276,3.0,-999.0,51,0.00,,,0.00,WeatherSnoop3.0,2013-04-12 21:34:00,
2013-04-12 16:39:00,57.3,39.8,29.90,SSW,203,2.0,-999.0,52,0.00,,,0.00,WeatherSnoop3.0,2013-04-12 21:39:00,
2013-04-12 16:44:00,58.6,38.4,29.90,North,359,0.0,-999.0,47,0.00,,,0.00,WeatherSnoop3.0,2013-04-12 21:44:00,
2013-04-12 16:49:00,58.4,38.8,29.90,SSE,154,1.0,-999.0,48,0.00,,,0.00,WeatherSnoop3.0,2013-04-12 21:49:00,
2013-04-12 16:54:00,58.2,37.5,29.90,SE,132,1.0,-999.0,46,0.00,,,0.00,WeatherSnoop3.0,2013-04-12 21:54:00,
2013-04-12 16:59:00,57.7,35.9,29.90,SE,132,0.0,-999.0,44,0.00,,,0.00,WeatherSnoop3.0,2013-04-12 21:59:00,
2013-04-12 17:04:00,57.4,36.8,29.90,SSW,209,0.0,-999.0,46,0.00,,,0.00,WeatherSnoop3.0,2013-04-12 22:04:00,
2013-04-12 17:09:00,57.8,36.6,29.90,ESE,103,0.0,-999.0,45,0.00,,,0.00,WeatherSnoop3.0,2013-04-12 22:09:00,
2013-04-12 17:14:00,58.2,38.1,29.90,SW,217,2.0,-999.0,47,0.00,,,0.00,WeatherSnoop3.0,2013-04-12 22:14:00,
2013-04-12 17:19:00,57.8,36.0,29.90,NE,50,2.0,-999.0,44,0.00,,,0.00,WeatherSnoop3.0,2013-04-12 22:19:00,
2013-04-12 17:24:00,56.5,38.1,29.90,West,264,1.0,-999.0,50,0.00,,,0.00,WeatherSnoop3.0,2013-04-12 22:24:00,
2013-04-12 17:29:00,57.2,37.7,29.90,WSW,242,0.0,-999.0,48,0.00,,,0.00,WeatherSnoop3.0,2013-04-12 22:29:00,
2013-04-12 17:34:00,58.1,38.0,29.90,SSW,207,4.0,-999.0,47,0.00,,,0.00,WeatherSnoop3.0,2013-04-12 22:34:00,
2013-04-12 17:39:00,57.9,38.9,29.90,WSW,238,3.0,-999.0,49,0.00,,,0.00,WeatherSnoop3.0,2013-04-12 22:39:00,
2013-04-12 17:44:00,57.3,38.3,29.90,West,266,2.0,-999.0,49,0.00,,,0.00,WeatherSnoop3.0,2013-04-12 22:44:00,
2013-04-12 17:49:00,56.9,37.9,29.90,WSW,238,3.0,-999.0,49,0.00,,,0.00,WeatherSnoop3.0,2013-04-12 22:49:00,
2013-04-12 17:54:00,56.5,36.5,29.90,SSE,153,1.0,-999.0,47,0.00,,,0.00,WeatherSnoop3.0,2013-04-12 22:54:00,
2013-04-12 17:59:00,56.3,36.9,29.90,SE,142,1.0,-999.0,48,0.00,,,0.00,WeatherSnoop3.0,2013-04-12 22:59:00,
2013-04-12 18:04:00,56.4,37.5,29.90,ESE,120,1.0,-999.0,49,0.00,,,0.00,WeatherSnoop3.0,2013-04-12 23:04:00,
2013-04-12 18:09:00,56.6,36.6,29.90,SW,214,1.0,-999.0,47,0.00,,,0.00,WeatherSnoop3.0,2013-04-12 23:09:00,
2013-04-12 18:14:00,57.1,37.1,29.90,SW,224,0.0,-999.0,47,0.00,,,0.00,WeatherSnoop3.0,2013-04-12 23:14:00,
2013-04-12 18:19:00,56.9,36.9,29.90,East,100,1.0,-999.0,47,0.00,,,0.00,WeatherSnoop3.0,2013-04-12 23:19:00,
2013-04-12 18:24:00,56.7,37.8,29.90,NNE,18,1.0,-999.0,49,0.00,,,0.00,WeatherSnoop3.0,2013-04-12 23:24:00,
2013-04-12 18:29:00,56.6,37.1,29.90,NW,321,0.0,-999.0,48,0.00,,,0.00,WeatherSnoop3.0,2013-04-12 23:29:00,
2013-04-12 18:34:00,56.7,37.2,29.90,SW,224,1.0,-999.0,48,0.00,,,0.00,WeatherSnoop3.0,2013-04-12 23:34:00,
2013-04-12 18:39:00,57.1,37.1,29.90,SW,222,0.0,-999.0,47,0.00,,,0.00,WeatherSnoop3.0,2013-04-12 23:39:00,
2013-04-12 18:44:00,57.6,37.0,29.90,SW,222,0.0,-999.0,46,0.00,,,0.00,WeatherSnoop3.0,2013-04-12 23:44:00,
2013-04-12 18:49:00,57.1,37.6,29.90,SW,222,0.0,-999.0,48,0.00,,,0.00,WeatherSnoop3.0,2013-04-12 23:49:00,
2013-04-12 18:54:00,57.1,37.1,29.90,SSW,197,0.0,-999.0,47,0.00,,,0.00,WeatherSnoop3.0,2013-04-12 23:54:00,
2013-04-12 18:59:00,56.2,36.2,29.90,NE,53,0.0,-999.0,47,0.00,,,0.00,WeatherSnoop3.0,2013-04-12 23:59:00,
2013-04-12 19:04:00,55.4,37.1,29.90,ENE,70,0.0,-999.0,50,0.00,,,0.00,WeatherSnoop3.0,2013-04-13 00:04:00,
2013-04-12 19:09:00,55.0,37.2,29.89,NNE,29,1.0,-999.0,51,0.00,,,0.00,WeatherSnoop3.0,2013-04-13 00:09:00,
2013-04-12 19:14:00,54.6,37.3,29.89,NE,53,0.0,-999.0,52,0.00,,,0.00,WeatherSnoop3.0,2013-04-13 00:14:00,
2013-04-12 19:19:00,54.4,38.1,29.89,NE,53,0.0,-999.0,54,0.00,,,0.00,WeatherSnoop3.0,2013-04-13 00:19:00,
2013-04-12 19:24:00,54.2,37.9,29.89,ENE,61,0.0,-999.0,54,0.00,,,0.00,WeatherSnoop3.0,2013-04-13 00:24:00,
2013-04-12 19:29:00,54.0,37.7,29.89,ENE,59,0.0,-999.0,54,0.00,,,0.00,WeatherSnoop3.0,2013-04-13 00:29:00,
2013-04-12 19:34:00,53.7,40.6,29.89,ENE,61,0.0,-999.0,61,0.00,,,0.00,WeatherSnoop3.0,2013-04-13 00:34:00,
2013-04-12 19:39:00,53.2,40.5,29.89,ENE,60,0.0,-999.0,62,0.00,,,0.00,WeatherSnoop3.0,2013-04-13 00:39:00,
2013-04-12 19:44:00,52.6,40.4,29.89,ENE,60,0.0,-999.0,63,0.00,,,0.00,WeatherSnoop3.0,2013-04-13 00:44:00,
2013-04-12 19:49:00,52.0,39.8,29.89,ENE,59,0.0,-999.0,63,0.00,,,0.00,WeatherSnoop3.0,2013-04-13 00:49:00,
2013-04-12 19:54:00,51.5,40.5,29.89,ENE,60,0.0,-999.0,66,0.00,,,0.00,WeatherSnoop3.0,2013-04-13 00:54:00,
2013-04-12 19:59:00,50.8,41.7,29.89,ENE,60,0.0,-999.0,71,0.00,,,0.00,WeatherSnoop3.0,2013-04-13 00:59:00,
2013-04-12 20:04:00,49.9,41.2,29.89,ENE,60,0.0,-999.0,72,0.00,,,0.00,WeatherSnoop3.0,2013-04-13 01:04:00,
2013-04-12 20:09:00,49.1,41.2,29.89,ENE,60,0.0,-999.0,74,0.00,,,0.00,WeatherSnoop3.0,2013-04-13 01:09:00,
2013-04-12 20:14:00,48.5,40.2,29.89,ENE,60,0.0,-999.0,73,0.00,,,0.00,WeatherSnoop3.0,2013-04-13 01:14:00,
2013-04-12 20:19:00,48.2,38.5,29.89,SE,133,0.0,-999.0,69,0.00,,,0.00,WeatherSnoop3.0,2013-04-13 01:19:00,
2013-04-12 20:24:00,48.8,38.7,29.89,SE,133,0.0,-999.0,68,0.00,,,0.00,WeatherSnoop3.0,2013-04-13 01:24:00,
2013-04-12 20:29:00,49.1,39.0,29.89,SE,133,0.0,-999.0,68,0.00,,,0.00,WeatherSnoop3.0,2013-04-13 01:29:00,
2013-04-12 20:34:00,49.0,38.9,29.90,SE,132,0.0,-999.0,68,0.00,,,0.00,WeatherSnoop3.0,2013-04-13 01:34:00,
2013-04-12 20:39:00,48.9,38.4,29.90,SE,133,0.0,-999.0,67,0.00,,,0.00,WeatherSnoop3.0,2013-04-13 01:39:00,
2013-04-12 20:44:00,48.8,38.7,29.90,SE,132,0.0,-999.0,68,0.00,,,0.00,WeatherSnoop3.0,2013-04-13 01:44:00,
2013-04-12 20:49:00,48.5,38.1,29.90,SE,132,0.0,-999.0,67,0.00,,,0.00,WeatherSnoop3.0,2013-04-13 01:49:00,
2013-04-12 20:54:00,48.4,38.3,29.90,SE,133,0.0,-999.0,68,0.00,,,0.00,WeatherSnoop3.0,2013-04-13 01:54:00,
2013-04-12 20:59:00,48.1,38.4,29.91,SE,132,0.0,-999.0,69,0.00,,,0.00,WeatherSnoop3.0,2013-04-13 01:59:00,
2013-04-12 21:04:00,47.6,38.7,29.91,SE,132,0.0,-999.0,71,0.00,,,0.00,WeatherSnoop3.0,2013-04-13 02:04:00,
2013-04-12 21:09:00,47.1,38.2,29.91,SE,133,0.0,-999.0,71,0.00,,,0.00,WeatherSnoop3.0,2013-04-13 02:09:00,
2013-04-12 21:14:00,46.5,38.3,29.92,SE,132,0.0,-999.0,73,0.00,,,0.00,WeatherSnoop3.0,2013-04-13 02:14:00,
2013-04-12 21:19:00,46.0,38.2,29.92,SE,132,0.0,-999.0,74,0.00,,,0.00,WeatherSnoop3.0,2013-04-13 02:19:00,
2013-04-12 21:24:00,46.0,37.5,29.92,SE,133,0.0,-999.0,72,0.00,,,0.00,WeatherSnoop3.0,2013-04-13 02:24:00,
2013-04-12 21:29:00,46.3,37.8,29.93,SE,133,0.0,-999.0,72,0.00,,,0.00,WeatherSnoop3.0,2013-04-13 02:29:00,
2013-04-12 21:34:00,46.3,37.4,29.93,SE,132,0.0,-999.0,71,0.00,,,0.00,WeatherSnoop3.0,2013-04-13 02:34:00,
2013-04-12 21:39:00,46.1,37.6,29.94,SE,133,0.0,-999.0,72,0.00,,,0.00,WeatherSnoop3.0,2013-04-13 02:39:00,
2013-04-12 21:44:00,45.6,37.5,29.94,SE,133,0.0,-999.0,73,0.00,,,0.00,WeatherSnoop3.0,2013-04-13 02:44:00,
2013-04-12 21:49:00,44.9,37.1,29.94,SE,132,0.0,-999.0,74,0.00,,,0.00,WeatherSnoop3.0,2013-04-13 02:49:00,
2013-04-12 21:54:00,44.5,37.7,29.95,SE,132,0.0,-999.0,77,0.00,,,0.00,WeatherSnoop3.0,2013-04-13 02:54:00,
2013-04-12 21:59:00,43.9,37.8,29.95,SE,133,0.0,-999.0,79,0.00,,,0.00,WeatherSnoop3.0,2013-04-13 02:59:00,
2013-04-12 22:04:00,43.3,37.6,29.95,SE,133,0.0,-999.0,80,0.00,,,0.00,WeatherSnoop3.0,2013-04-13 03:04:00,
2013-04-12 22:09:00,43.1,37.4,29.95,SE,133,0.0,-999.0,80,0.00,,,0.00,WeatherSnoop3.0,2013-04-13 03:09:00,
2013-04-12 22:14:00,42.6,37.5,29.95,SE,132,0.0,-999.0,82,0.00,,,0.00,WeatherSnoop3.0,2013-04-13 03:14:00,
2013-04-12 22:19:00,42.2,37.1,29.95,SE,133,0.0,-999.0,82,0.00,,,0.00,WeatherSnoop3.0,2013-04-13 03:19:00,
2013-04-12 22:24:00,41.8,37.0,29.95,SE,132,0.0,-999.0,83,0.00,,,0.00,WeatherSnoop3.0,2013-04-13 03:24:00,
2013-04-12 22:29:00,41.6,37.7,29.96,SE,132,0.0,-999.0,86,0.00,,,0.00,WeatherSnoop3.0,2013-04-13 03:29:00,
2013-04-12 22:34:00,41.3,37.1,29.95,SE,132,0.0,-999.0,85,0.00,,,0.00,WeatherSnoop3.0,2013-04-13 03:34:00,
2013-04-12 22:39:00,41.1,36.9,29.96,SE,132,0.0,-999.0,85,0.00,,,0.00,WeatherSnoop3.0,2013-04-13 03:39:00,
2013-04-12 22:44:00,40.7,36.8,29.96,SE,133,0.0,-999.0,86,0.00,,,0.00,WeatherSnoop3.0,2013-04-13 03:44:00,
2013-04-12 22:49:00,40.4,37.1,29.96,SE,132,0.0,-999.0,88,0.00,,,0.00,WeatherSnoop3.0,2013-04-13 03:49:00,
2013-04-12 22:54:00,40.7,37.7,29.96,SE,132,0.0,-999.0,89,0.00,,,0.00,WeatherSnoop3.0,2013-04-13 03:54:00,
2013-04-12 22:59:00,40.7,37.4,29.96,SE,132,0.0,-999.0,88,0.00,,,0.00,WeatherSnoop3.0,2013-04-13 03:59:00,
2013-04-12 23:00:00,40.6,37.0,29.95,SE,133,0.0,-999.0,87,0.00,,,0.00,WeatherSnoop3.0,2013-04-13 04:00:00,
2013-04-12 23:01:00,40.6,37.0,29.95,SE,133,0.0,-999.0,87,0.00,,,0.00,WeatherSnoop3.0,2013-04-13 04:01:00,
2013-04-12 23:02:00,40.6,37.0,29.95,SE,132,0.0,-999.0,87,0.00,,,0.00,WeatherSnoop3.0,2013-04-13 04:02:00,
2013-04-12 23:07:00,40.9,37.0,29.96,NNE,16,0.0,-999.0,86,0.00,,,0.00,WeatherSnoop3.0,2013-04-13 04:07:00,
2013-04-12 23:08:00,41.0,37.1,29.96,NNE,16,0.0,-999.0,86,0.00,,,0.00,WeatherSnoop3.0,2013-04-13 04:08:00,
2013-04-12 23:13:00,41.3,37.1,29.96,NNE,16,0.0,-999.0,85,0.00,,,0.00,WeatherSnoop3.0,2013-04-13 04:13:00,
2013-04-12 23:18:00,41.0,37.1,29.96,NNE,16,0.0,-999.0,86,0.00,,,0.00,WeatherSnoop3.0,2013-04-13 04:18:00,
2013-04-12 23:23:00,40.6,36.7,29.97,NNE,16,0.0,-999.0,86,0.00,,,0.00,WeatherSnoop3.0,2013-04-13 04:23:00,
2013-04-12 23:28:00,40.2,36.9,29.97,NNE,16,0.0,-999.0,88,0.00,,,0.00,WeatherSnoop3.0,2013-04-13 04:28:00,
2013-04-12 23:33:00,40.4,37.1,29.98,NNE,13,2.0,-999.0,88,0.00,,,0.00,WeatherSnoop3.0,2013-04-13 04:33:00,
2013-04-12 23:38:00,41.9,37.4,29.98,NNE,20,0.0,-999.0,84,0.00,,,0.00,WeatherSnoop3.0,2013-04-13 04:38:00,
2013-04-12 23:43:00,42.6,37.5,29.98,ENE,65,0.0,-999.0,82,0.00,,,0.00,WeatherSnoop3.0,2013-04-13 04:43:00,
2013-04-12 23:48:00,42.7,37.6,29.98,ESE,119,0.0,-999.0,82,0.00,,,0.00,WeatherSnoop3.0,2013-04-13 04:48:00,
2013-04-12 23:53:00,42.4,37.3,29.98,ESE,119,0.0,-999.0,82,0.00,,,0.00,WeatherSnoop3.0,2013-04-13 04:53:00,
2013-04-12 23:58:00,41.7,36.9,29.98,ESE,119,0.0,-999.0,83,0.00,,,0.00,WeatherSnoop3.0,2013-04-13 04:58:00,